Time;durP1;ratioP1;P1;durP2;ratioP2;P2;SDS_P1;SDS_P2;PMS_P1;PMS_P2;Temp;Humidity;BMP_temperature;BMP_pressure;BME280_temperature;BME280_humidity;BME280_pressure;Samples;Min_cycle;Max_cycle;Signal;HPM_P1;HPM_P2
2022/11/28 00:00:35;;;;;;;11.17;9.60;;;;;;;6.67;nan;99375.06;6029580;23;20172;-86
2022/11/28 00:03:00;;;;;;;14.40;13.10;;;;;;;6.65;nan;99369.91;6030618;23;20200;-85
2022/11/28 00:05:26;;;;;;;13.77;10.70;;;;;;;6.63;nan;99370.91;6032564;23;20198;-86
2022/11/28 00:07:51;;;;;;;11.63;9.40;;;;;;;6.59;nan;99367.63;6031794;23;20221;-86
2022/11/28 00:10:17;;;;;;;15.40;9.50;;;;;;;6.58;nan;99367.69;6033735;23;20240;-86
2022/11/28 00:12:42;;;;;;;13.10;9.37;;;;;;;6.58;nan;99373.75;6032536;23;20633;-86
2022/11/28 00:15:10;;;;;;;10.03;9.13;;;;;;;6.62;nan;99371.84;6030779;23;20323;-86
2022/11/28 00:17:35;;;;;;;13.43;10.23;;;;;;;6.65;nan;99366.47;6030920;23;20522;-85
2022/11/28 00:20:00;;;;;;;11.73;9.97;;;;;;;6.68;nan;99361.09;6006657;23;20700;-86
2022/11/28 00:22:28;;;;;;;11.20;10.13;;;;;;;6.73;nan;99376.53;6031488;23;20171;-86
2022/11/28 00:24:53;;;;;;;10.15;9.02;;;;;;;6.76;nan;99366.75;6031551;23;20650;-86
2022/11/28 00:27:19;;;;;;;10.60;8.90;;;;;;;6.80;nan;99364.81;6031074;23;20191;-86
2022/11/28 00:29:45;;;;;;;11.10;9.50;;;;;;;6.83;nan;99367.25;6008235;23;20209;-86
2022/11/28 00:32:10;;;;;;;11.90;8.70;;;;;;;6.85;nan;99374.09;6014173;23;20516;-86
2022/11/28 00:34:36;;;;;;;12.73;9.33;;;;;;;6.89;nan;99366.97;6012778;23;20294;-86
2022/11/28 00:37:01;;;;;;;10.77;9.77;;;;;;;6.89;nan;99368.75;6034082;23;20186;-87
2022/11/28 00:39:26;;;;;;;11.47;10.37;;;;;;;6.90;nan;99365.19;6031280;23;20677;-86
2022/11/28 00:41:52;;;;;;;11.97;8.73;;;;;;;6.91;nan;99369.47;6030706;23;20648;-86
2022/11/28 00:44:17;;;;;;;13.50;10.13;;;;;;;6.90;nan;99367.81;6031863;23;20201;-86
2022/11/28 00:46:43;;;;;;;14.87;8.70;;;;;;;6.89;nan;99363.53;6033298;23;20232;-86
2022/11/28 00:49:08;;;;;;;13.27;8.07;;;;;;;6.87;nan;99371.41;6030593;23;20184;-86
2022/11/28 00:51:34;;;;;;;13.00;9.40;;;;;;;6.82;nan;99369.03;6005180;23;20243;-86
2022/11/28 00:54:02;;;;;;;11.65;10.15;;;;;;;6.76;nan;99369.38;6037324;23;20710;-86
2022/11/28 00:56:30;;;;;;;13.27;10.23;;;;;;;6.71;nan;99365.31;6007472;23;20465;-86
2022/11/28 00:58:56;;;;;;;14.45;11.13;;;;;;;6.70;nan;99363.59;6008467;23;20264;-86
2022/11/28 01:01:25;;;;;;;14.37;10.13;;;;;;;6.66;nan;99362.94;6032544;23;20260;-86
2022/11/28 01:03:53;;;;;;;15.15;11.82;;;;;;;6.69;nan;99372.38;6030839;23;20880;-86
2022/11/28 01:06:33;;;;;;;14.05;10.95;;;;;;;6.69;nan;99369.75;6007677;23;20181;-86
2022/11/28 01:09:01;;;;;;;8.82;7.95;;;;;;;6.69;nan;99368.00;6031100;23;20231;-86
2022/11/28 01:11:28;;;;;;;12.90;8.82;;;;;;;6.67;nan;99372.47;6031405;23;20235;-86
2022/11/28 01:13:58;;;;;;;10.13;9.13;;;;;;;6.66;nan;99375.97;6030225;23;20464;-86
2022/11/28 01:16:23;;;;;;;12.50;9.90;;;;;;;6.67;nan;99374.19;6029829;23;20188;-85
2022/11/28 01:18:49;;;;;;;12.20;8.83;;;;;;;6.67;nan;99382.03;6030377;23;20185;-86
2022/11/28 01:21:14;;;;;;;9.43;8.40;;;;;;;6.67;nan;99382.03;6029434;23;20198;-86
2022/11/28 01:23:40;;;;;;;9.60;8.70;;;;;;;6.65;nan;99389.97;6031273;23;20252;-86
2022/11/28 01:26:07;;;;;;;9.63;8.27;;;;;;;6.63;nan;99386.56;6029452;23;20185;-85
2022/11/28 01:28:33;;;;;;;10.55;8.65;;;;;;;6.61;nan;99377.97;6028492;23;20221;-86
2022/11/28 01:31:07;;;;;;;8.93;8.02;;;;;;;6.58;nan;99378.13;6031435;23;20244;-86
2022/11/28 01:33:32;;;;;;;16.00;9.57;;;;;;;6.56;nan;99374.75;6005172;23;20174;-85
2022/11/28 01:35:58;;;;;;;10.50;8.67;;;;;;;6.53;nan;99360.09;6004120;23;20468;-86
2022/11/28 01:38:24;;;;;;;11.60;7.73;;;;;;;6.50;nan;99365.47;5989383;23;20221;-85
2022/11/28 01:40:50;;;;;;;11.13;8.70;;;;;;;6.45;nan;99359.63;6030027;23;20179;-86
2022/11/28 01:43:16;;;;;;;13.57;9.23;;;;;;;6.38;nan;99356.50;6030163;23;20818;-86
2022/11/28 01:45:42;;;;;;;13.13;9.65;;;;;;;6.33;nan;99357.66;6029760;23;20430;-86
2022/11/28 01:48:10;;;;;;;10.57;8.25;;;;;;;6.31;nan;99359.50;6031415;23;20660;-86
2022/11/28 01:50:37;;;;;;;9.52;7.35;;;;;;;6.31;nan;99344.69;6027753;23;20236;-85
2022/11/28 01:53:07;;;;;;;12.75;7.82;;;;;;;6.28;nan;99333.56;6030628;23;20435;-86
2022/11/28 01:55:41;;;;;;;13.48;8.00;;;;;;;6.25;nan;99326.75;6026804;23;20222;-86
2022/11/28 01:58:08;;;;;;;11.15;8.50;;;;;;;6.26;nan;99328.41;6017641;23;20581;-86
2022/11/28 02:00:33;;;;;;;8.80;7.80;;;;;;;6.26;nan;99318.00;6027413;23;20178;-86
2022/11/28 02:03:16;;;;;;;10.60;8.70;;;;;;;6.29;nan;99311.78;6028722;23;20177;-87
2022/11/28 02:05:42;;;;;;;9.90;8.40;;;;;;;6.30;nan;99310.88;6028132;23;20359;-86
2022/11/28 02:08:08;;;;;;;16.10;7.50;;;;;;;6.33;nan;99306.34;6029912;23;20501;-86
2022/11/28 02:10:39;;;;;;;10.75;9.50;;;;;;;6.33;nan;99297.66;6027811;23;20204;-86
2022/11/28 02:13:16;;;;;;;11.52;7.88;;;;;;;6.36;nan;99300.13;6017352;23;20184;-85
2022/11/28 02:16:09;;;;;;;8.60;7.15;;;;;;;6.38;nan;99290.47;6003240;23;20205;-86
2022/11/28 02:18:57;;;;;;;7.55;6.80;;;;;;;6.43;nan;99291.06;5990221;23;20213;-86
2022/11/28 02:21:54;;;;;;;9.93;7.35;;;;;;;6.43;nan;99289.28;6028886;23;20184;-85
2022/11/28 02:24:36;;;;;;;9.20;7.93;;;;;;;6.46;nan;99287.47;6028714;23;20684;-86
2022/11/28 02:27:18;;;;;;;11.10;7.40;;;;;;;6.50;nan;99273.31;6003861;23;20185;-85
2022/11/28 02:30:09;;;;;;;8.07;7.28;;;;;;;6.54;nan;99267.03;6028688;23;20192;-86
2022/11/28 02:32:53;;;;;;;7.85;6.47;;;;;;;6.56;nan;99271.25;6006403;23;20624;-86
2022/11/28 02:35:38;;;;;;;8.82;7.63;;;;;;;6.58;nan;99266.75;6028126;23;20220;-86
2022/11/28 02:38:17;;;;;;;10.88;7.35;;;;;;;6.62;nan;99259.63;6027318;23;20260;-85
2022/11/28 02:40:54;;;;;;;7.95;6.85;;;;;;;6.63;nan;99269.13;6029284;23;20978;-86
2022/11/28 02:43:32;;;;;;;8.27;6.20;;;;;;;6.62;nan;99259.63;6029075;23;20184;-86
2022/11/28 02:46:21;;;;;;;8.05;7.22;;;;;;;6.60;nan;99253.66;6030499;23;20532;-86
2022/11/28 02:48:49;;;;;;;8.63;7.25;;;;;;;6.59;nan;99242.38;6027288;23;20815;-86
2022/11/28 02:51:40;;;;;;;8.48;7.30;;;;;;;6.58;nan;99247.66;6029755;23;20202;-86
2022/11/28 02:54:10;;;;;;;8.57;7.45;;;;;;;6.57;nan;99253.81;6017674;23;20228;-86
2022/11/28 02:56:36;;;;;;;9.10;6.65;;;;;;;6.60;nan;99251.03;6029425;23;20542;-86
2022/11/28 02:59:02;;;;;;;8.52;6.78;;;;;;;6.61;nan;99244.88;6027737;23;20178;-86
2022/11/28 03:01:35;;;;;;;10.30;6.97;;;;;;;6.59;nan;99241.53;6029301;23;20251;-86
2022/11/28 03:04:46;;;;;;;8.70;7.90;;;;;;;6.60;nan;99233.59;6027685;23;20909;-86
2022/11/28 03:07:49;;;;;;;7.18;6.47;;;;;;;6.55;nan;99221.72;6015663;23;20565;-85
2022/11/28 03:10:29;;;;;;;6.55;5.05;;;;;;;6.47;nan;99223.91;6028839;23;20209;-86
2022/11/28 03:13:19;;;;;;;7.35;5.00;;;;;;;6.51;nan;99214.97;6029141;23;20184;-86
2022/11/28 03:16:06;;;;;;;7.25;5.43;;;;;;;6.55;nan;99224.34;6004292;23;20520;-86
2022/11/28 03:18:38;;;;;;;7.07;5.18;;;;;;;6.60;nan;99235.38;6032347;23;20197;-86
2022/11/28 03:21:23;;;;;;;7.05;5.22;;;;;;;6.62;nan;99229.16;6052837;23;20182;-86
2022/11/28 03:23:56;;;;;;;6.57;5.03;;;;;;;6.65;nan;99229.00;6058369;23;20588;-86
2022/11/28 03:26:54;;;;;;;8.85;6.72;;;;;;;6.64;nan;99223.84;6057425;23;20184;-86
2022/11/28 03:29:36;;;;;;;6.38;5.05;;;;;;;6.62;nan;99226.53;6045435;23;20182;-85
2022/11/28 03:32:13;;;;;;;8.00;6.55;;;;;;;6.64;nan;99223.84;6040884;23;20185;-86
2022/11/28 03:34:45;;;;;;;6.47;5.60;;;;;;;6.65;nan;99222.94;6033549;23;20248;-86
2022/11/28 03:37:16;;;;;;;8.85;6.07;;;;;;;6.65;nan;99215.94;6028921;23;20177;-85
2022/11/28 03:39:47;;;;;;;7.00;5.53;;;;;;;6.65;nan;99215.94;6028930;23;20268;-86
2022/11/28 03:42:18;;;;;;;9.98;5.90;;;;;;;6.67;nan;99209.78;6027677;23;20185;-86
2022/11/28 03:44:53;;;;;;;6.47;5.57;;;;;;;6.70;nan;99217.44;6027716;23;20703;-86
2022/11/28 03:47:18;;;;;;;8.15;6.68;;;;;;;6.67;nan;99217.59;6028640;23;20667;-86
2022/11/28 03:49:51;;;;;;;9.20;7.73;;;;;;;6.62;nan;99226.53;6026037;23;20181;-86
2022/11/28 03:52:31;;;;;;;9.63;8.65;;;;;;;6.57;nan;99220.72;6005189;23;20629;-86
2022/11/28 03:55:11;;;;;;;7.75;6.60;;;;;;;6.50;nan;99231.56;6029474;23;20280;-86
2022/11/28 03:57:49;;;;;;;8.70;6.47;;;;;;;6.47;nan;99221.28;6029928;23;20208;-87
2022/11/28 04:00:15;;;;;;;9.82;6.85;;;;;;;6.42;nan;99224.97;6007175;23;20183;-86
2022/11/28 04:03:00;;;;;;;7.63;5.85;;;;;;;6.39;nan;99229.53;6028673;23;20698;-85
2022/11/28 04:05:40;;;;;;;10.77;9.43;;;;;;;6.37;nan;99232.22;6026845;23;20397;-85
2022/11/28 04:08:26;;;;;;;9.35;8.23;;;;;;;6.30;nan;99225.63;5993231;23;20631;-86
2022/11/28 04:11:00;;;;;;;8.05;6.57;;;;;;;6.28;nan;99222.25;6029391;23;20204;-86
2022/11/28 04:13:35;;;;;;;8.73;7.20;;;;;;;6.28;nan;99221.41;6030452;23;20180;-86
2022/11/28 04:16:07;;;;;;;9.65;8.23;;;;;;;6.28;nan;99227.47;6029093;23;20230;-86
2022/11/28 04:18:37;;;;;;;9.10;7.55;;;;;;;6.27;nan;99228.41;6031855;23;20192;-86
2022/11/28 04:21:25;;;;;;;9.27;7.63;;;;;;;6.29;nan;99228.31;6027033;23;20551;-86
2022/11/28 04:23:55;;;;;;;9.70;7.13;;;;;;;6.28;nan;99221.41;6003353;23;20287;-86
2022/11/28 04:26:29;;;;;;;9.55;7.82;;;;;;;6.28;nan;99219.66;6005494;23;20213;-86
2022/11/28 04:28:57;;;;;;;8.07;6.35;;;;;;;6.28;nan;99226.63;6039300;23;20244;-86
2022/11/28 04:31:24;;;;;;;9.65;7.05;;;;;;;6.26;nan;99218.88;6037569;23;20247;-86
2022/11/28 04:34:01;;;;;;;8.15;7.00;;;;;;;6.26;nan;99220.66;6031210;23;20520;-86
2022/11/28 04:36:29;;;;;;;7.18;6.18;;;;;;;6.25;nan;99212.00;6029760;23;20190;-85
2022/11/28 04:38:57;;;;;;;9.38;6.85;;;;;;;6.25;nan;99218.97;6030001;23;20209;-86
2022/11/28 04:41:33;;;;;;;9.45;7.63;;;;;;;6.19;nan;99218.38;6034783;23;20179;-86
2022/11/28 04:44:08;;;;;;;7.30;6.57;;;;;;;6.16;nan;99212.47;6035675;23;20238;-85
2022/11/28 04:46:39;;;;;;;7.35;6.18;;;;;;;6.10;nan;99211.03;6030516;23;20658;-86
2022/11/28 04:49:04;;;;;;;6.85;5.80;;;;;;;6.06;nan;99203.44;6026770;23;20652;-85
2022/11/28 04:51:43;;;;;;;10.00;7.43;;;;;;;5.97;nan;99210.81;6029879;23;20247;-86
2022/11/28 04:54:23;;;;;;;9.23;7.40;;;;;;;5.90;nan;99204.19;5994403;23;20446;-86
2022/11/28 04:56:56;;;;;;;8.48;7.47;;;;;;;5.89;nan;99196.47;5994469;23;20289;-86
2022/11/28 04:59:25;;;;;;;9.55;7.15;;;;;;;5.88;nan;99213.84;5999522;23;20193;-86
2022/11/28 05:01:51;;;;;;;8.63;7.22;;;;;;;5.90;nan;99198.13;6029428;23;20637;-86
2022/11/28 05:04:17;;;;;;;13.20;8.40;;;;;;;5.92;nan;99199.75;6027677;23;20403;-86
2022/11/28 05:06:42;;;;;;;8.53;6.90;;;;;;;5.94;nan;99194.47;6003501;23;20535;-86
2022/11/28 05:09:11;;;;;;;7.63;6.93;;;;;;;5.95;nan;99194.41;6029473;23;20407;-86
2022/11/28 05:11:37;;;;;;;10.70;7.97;;;;;;;5.94;nan;99194.47;5980519;23;20754;-86
2022/11/28 05:14:02;;;;;;;7.90;7.20;;;;;;;5.96;nan;99193.47;6030547;23;20287;-86
2022/11/28 05:16:28;;;;;;;8.70;7.40;;;;;;;5.97;nan;99182.13;6029214;23;20217;-87
2022/11/28 05:18:53;;;;;;;9.63;7.00;;;;;;;5.99;nan;99187.25;6031821;23;20247;-85
2022/11/28 05:21:19;;;;;;;9.87;8.90;;;;;;;6.00;nan;99194.19;6028831;23;20199;-85
2022/11/28 05:23:45;;;;;;;11.67;7.80;;;;;;;6.01;nan;99192.41;6029666;23;20201;-84
2022/11/28 05:26:16;;;;;;;12.80;7.63;;;;;;;6.02;nan;99186.25;6030137;23;20596;-86
2022/11/28 05:28:46;;;;;;;10.00;6.78;;;;;;;6.05;nan;99193.91;6002765;23;20277;-85
2022/11/28 05:31:12;;;;;;;9.63;7.90;;;;;;;6.08;nan;99191.19;6029450;23;20407;-85
2022/11/28 05:33:37;;;;;;;9.57;8.57;;;;;;;6.10;nan;99189.31;6032421;23;20186;-85
2022/11/28 05:36:08;;;;;;;12.13;8.80;;;;;;;6.09;nan;99195.47;6045814;23;20167;-86
2022/11/28 05:38:35;;;;;;;9.75;7.50;;;;;;;6.07;nan;99197.28;6045831;23;20183;-85
2022/11/28 05:41:01;;;;;;;10.18;8.60;;;;;;;6.06;nan;99198.22;6021623;23;20440;-85
2022/11/28 05:43:27;;;;;;;9.65;7.63;;;;;;;6.04;nan;99187.88;6032192;23;20172;-84
2022/11/28 05:45:53;;;;;;;7.75;6.80;;;;;;;6.04;nan;99187.88;6030797;23;20224;-85
2022/11/28 05:48:18;;;;;;;10.53;8.70;;;;;;;6.07;nan;99192.06;6028039;23;20196;-86
2022/11/28 05:50:44;;;;;;;12.10;9.13;;;;;;;6.08;nan;99193.78;6003578;23;20428;-85
2022/11/28 05:53:10;;;;;;;13.70;10.47;;;;;;;6.07;nan;99198.13;6025688;23;20254;-85
2022/11/28 05:55:38;;;;;;;10.03;9.00;;;;;;;6.07;nan;99194.69;6003455;23;20430;-84
2022/11/28 05:58:04;;;;;;;14.65;9.40;;;;;;;6.06;nan;99191.25;6029556;23;20167;-86
2022/11/28 06:00:30;;;;;;;11.00;9.20;;;;;;;6.05;nan;99189.56;6028617;23;20470;-86
2022/11/28 06:02:56;;;;;;;12.80;7.65;;;;;;;6.06;nan;99186.03;6029151;23;20279;-86
2022/11/28 06:05:21;;;;;;;10.67;9.57;;;;;;;6.06;nan;99185.19;6002292;23;20195;-86
2022/11/28 06:07:47;;;;;;;15.57;10.43;;;;;;;6.07;nan;99192.06;6031697;23;20523;-86
2022/11/28 06:10:13;;;;;;;11.83;10.70;;;;;;;6.08;nan;99189.41;6029856;23;20191;-86
2022/11/28 06:12:38;;;;;;;13.97;8.50;;;;;;;6.07;nan;99195.53;6029349;23;20190;-87
2022/11/28 06:15:04;;;;;;;13.70;10.73;;;;;;;6.07;nan;99197.28;6029590;23;20183;-86
2022/11/28 06:17:31;;;;;;;13.40;10.45;;;;;;;6.05;nan;99194.78;6027231;23;20194;-86
2022/11/28 06:19:56;;;;;;;12.87;9.73;;;;;;;6.05;nan;99199.13;6003040;23;20167;-86
2022/11/28 06:22:22;;;;;;;8.30;7.40;;;;;;;6.05;nan;99193.91;6001487;23;20259;-86
2022/11/28 06:24:48;;;;;;;7.80;6.30;;;;;;;6.05;nan;99189.56;6028411;23;20295;-87
2022/11/28 06:27:14;;;;;;;10.25;7.10;;;;;;;6.07;nan;99197.28;6028423;23;20247;-86
2022/11/28 06:29:40;;;;;;;10.17;7.33;;;;;;;6.05;nan;99197.38;6021403;23;20168;-86
2022/11/28 06:32:06;;;;;;;13.07;8.60;;;;;;;6.06;nan;99201.66;6022590;23;20407;-86
2022/11/28 06:34:31;;;;;;;9.77;8.55;;;;;;;6.07;nan;99198.13;6024369;23;20535;-86
2022/11/28 06:36:57;;;;;;;13.97;12.23;;;;;;;6.10;nan;99197.13;6023459;23;20163;-86
2022/11/28 06:39:23;;;;;;;13.40;11.48;;;;;;;6.11;nan;99193.63;6023242;23;20251;-86
2022/11/28 06:41:48;;;;;;;13.47;11.80;;;;;;;6.14;nan;99198.66;5997524;23;20619;-86
2022/11/28 06:44:15;;;;;;;14.93;11.63;;;;;;;6.16;nan;99202.88;6022919;23;20516;-86
2022/11/28 06:46:41;;;;;;;17.65;10.95;;;;;;;6.19;nan;99207.09;6023084;23;20578;-86
2022/11/28 06:49:07;;;;;;;12.98;11.55;;;;;;;6.22;nan;99211.31;6022766;23;20168;-86
2022/11/28 06:51:32;;;;;;;15.27;11.50;;;;;;;6.25;nan;99217.22;6021999;23;20270;-86
2022/11/28 06:53:58;;;;;;;13.67;11.80;;;;;;;6.28;nan;99213.59;6023126;23;20835;-86
2022/11/28 06:56:23;;;;;;;9.03;7.50;;;;;;;6.30;nan;99225.63;6020927;23;20222;-86
2022/11/28 06:58:54;;;;;;;9.33;6.93;;;;;;;6.30;nan;99225.63;5973537;23;20645;-86
2022/11/28 07:01:21;;;;;;;9.60;8.02;;;;;;;6.32;nan;99225.53;6001456;23;20202;-86
2022/11/28 07:03:47;;;;;;;10.85;8.63;;;;;;;6.33;nan;99224.63;6015242;23;20461;-86
2022/11/28 07:06:15;;;;;;;9.82;8.07;;;;;;;6.35;nan;99228.00;6027702;23;20167;-86
2022/11/28 07:08:41;;;;;;;11.48;8.43;;;;;;;6.37;nan;99221.78;6021592;23;20788;-86
2022/11/28 07:11:28;;;;;;;10.57;7.63;;;;;;;6.40;nan;99226.84;6020893;23;20221;-86
2022/11/28 07:13:55;;;;;;;8.77;7.80;;;;;;;6.44;nan;99217.09;6023545;23;20414;-86
2022/11/28 07:16:29;;;;;;;15.07;8.60;;;;;;;6.46;nan;99230.06;6023684;23;20189;-86
2022/11/28 07:18:56;;;;;;;13.82;8.57;;;;;;;6.48;nan;99234.28;6000200;23;20170;-86
2022/11/28 07:21:22;;;;;;;11.48;9.48;;;;;;;6.50;nan;99231.56;6025292;23;20594;-85
2022/11/28 07:23:48;;;;;;;10.05;8.27;;;;;;;6.53;nan;99239.22;6026887;23;20163;-86
2022/11/28 07:26:16;;;;;;;12.53;8.47;;;;;;;6.55;nan;99246.06;6023964;23;20431;-86
2022/11/28 07:28:42;;;;;;;8.68;7.75;;;;;;;6.58;nan;99247.66;6024617;23;20399;-86
2022/11/28 07:31:14;;;;;;;12.65;8.80;;;;;;;6.61;nan;99244.88;6048144;23;20166;-86
2022/11/28 07:33:42;;;;;;;10.35;8.93;;;;;;;6.65;nan;99249.03;5961540;23;1091196;-86
2022/11/28 07:36:11;;;;;;;10.82;7.95;;;;;;;6.65;nan;99241.19;6026375;23;20165;-86
2022/11/28 07:38:37;;;;;;;10.93;9.70;;;;;;;6.67;nan;99239.34;6029435;23;20168;-86
2022/11/28 07:41:11;;;;;;;12.10;8.33;;;;;;;6.71;nan;99247.84;6006318;23;20166;-86
2022/11/28 07:43:37;;;;;;;16.55;11.57;;;;;;;6.74;nan;99245.91;6029199;23;20335;-86
2022/11/28 07:46:05;;;;;;;13.50;11.17;;;;;;;6.77;nan;99244.91;6026212;23;20165;-86
2022/11/28 07:48:31;;;;;;;18.55;13.18;;;;;;;6.80;nan;99242.97;6025288;23;20404;-86
2022/11/28 07:50:56;;;;;;;15.40;12.43;;;;;;;6.81;nan;99244.66;6025697;23;20274;-86
2022/11/28 07:53:22;;;;;;;21.27;12.97;;;;;;;6.86;nan;99247.03;5999702;23;20166;-86
2022/11/28 07:55:47;;;;;;;17.97;13.00;;;;;;;6.89;nan;99233.81;6026008;23;20732;-86
2022/11/28 07:58:12;;;;;;;17.17;12.50;;;;;;;6.92;nan;99236.25;6026348;23;20179;-86
2022/11/28 08:00:38;;;;;;;29.10;15.70;;;;;;;6.95;nan;99235.25;6002060;23;20216;-86
2022/11/28 08:03:04;;;;;;;25.07;15.43;;;;;;;6.98;nan;99235.91;6027497;23;20167;-86
2022/11/28 08:05:29;;;;;;;20.33;13.70;;;;;;;7.02;nan;99233.97;6025323;23;20416;-86
2022/11/28 08:07:55;;;;;;;17.30;9.97;;;;;;;7.06;nan;99233.72;6026972;23;20155;-86
2022/11/28 08:10:20;;;;;;;12.03;7.90;;;;;;;7.12;nan;99229.94;6025601;23;20198;-86
2022/11/28 08:12:46;;;;;;;9.87;6.90;;;;;;;7.15;nan;99229.75;6025451;23;20167;-86
2022/11/28 08:15:11;;;;;;;11.97;7.57;;;;;;;7.19;nan;99235.66;5999622;23;20247;-86
2022/11/28 08:17:37;;;;;;;19.13;7.80;;;;;;;7.22;nan;99232.88;6023853;23;20436;-86
2022/11/28 08:20:03;;;;;;;20.50;9.80;;;;;;;7.26;nan;99232.63;6025869;23;20615;-86
2022/11/28 08:22:28;;;;;;;13.53;9.30;;;;;;;7.29;nan;99237.69;6024409;23;20586;-86
2022/11/28 08:24:53;;;;;;;11.27;7.80;;;;;;;7.34;nan;99233.94;6024167;23;20188;-86
2022/11/28 08:27:19;;;;;;;10.73;7.30;;;;;;;7.36;nan;99229.50;6026418;23;20513;-86
2022/11/28 08:29:44;;;;;;;7.83;7.13;;;;;;;7.36;nan;99232.94;5998009;23;20258;-86
2022/11/28 08:32:10;;;;;;;8.67;6.63;;;;;;;7.36;nan;99229.50;6025220;23;20175;-86
2022/11/28 08:34:35;;;;;;;12.03;7.57;;;;;;;7.38;nan;99214.56;6023783;23;20201;-86
2022/11/28 08:37:01;;;;;;;9.93;7.50;;;;;;;7.43;nan;99220.38;6024766;23;20179;-86
2022/11/28 08:39:26;;;;;;;8.70;7.40;;;;;;;7.49;nan;99223.47;6025148;23;20190;-86
2022/11/28 08:41:55;;;;;;;9.73;7.83;;;;;;;7.52;nan;99220.69;6024225;23;20232;-86
2022/11/28 08:44:21;;;;;;;11.18;6.88;;;;;;;7.55;nan;99217.06;6000273;23;20266;-86
2022/11/28 08:46:47;;;;;;;8.63;7.30;;;;;;;7.59;nan;99217.72;6024017;23;20741;-86
2022/11/28 08:49:12;;;;;;;11.40;8.03;;;;;;;7.62;nan;99218.41;6024707;23;20246;-86
2022/11/28 08:51:38;;;;;;;9.33;7.23;;;;;;;7.63;nan;99217.44;6025802;23;20273;-86
2022/11/28 08:54:03;;;;;;;11.40;8.10;;;;;;;7.68;nan;99210.19;6024165;23;20651;-86
2022/11/28 08:56:29;;;;;;;10.00;7.80;;;;;;;7.73;nan;99213.38;6025483;23;20633;-86
2022/11/28 08:58:54;;;;;;;10.20;7.83;;;;;;;7.79;nan;99211.34;6023541;23;20912;-86
2022/11/28 09:01:22;;;;;;;8.70;7.30;;;;;;;7.82;nan;99214.59;6024148;23;20228;-86
2022/11/28 09:03:48;;;;;;;9.48;7.05;;;;;;;7.85;nan;99209.19;6025301;23;20432;-86
2022/11/28 09:06:15;;;;;;;10.52;7.60;;;;;;;7.89;nan;99212.50;6024753;23;20499;-86
2022/11/28 09:08:41;;;;;;;9.73;7.97;;;;;;;7.91;nan;99213.22;6020327;23;20219;-86
2022/11/28 09:11:08;;;;;;;8.83;7.13;;;;;;;7.95;nan;99214.75;6026167;23;20259;-86
2022/11/28 09:13:35;;;;;;;8.15;7.32;;;;;;;7.99;nan;99218.84;6024001;23;20420;-86
2022/11/28 09:16:01;;;;;;;9.80;7.63;;;;;;;8.03;nan;99224.75;6029007;23;20351;-86
2022/11/28 09:18:27;;;;;;;9.27;7.10;;;;;;;8.05;nan;99226.34;5998726;23;20516;-86
2022/11/28 09:20:57;;;;;;;10.80;7.53;;;;;;;8.10;nan;99223.44;5999996;23;20159;-86
2022/11/28 09:23:22;;;;;;;13.27;9.18;;;;;;;8.14;nan;99224.94;6025348;23;20235;-86
2022/11/28 09:25:47;;;;;;;13.60;10.23;;;;;;;8.20;nan;99209.72;6023856;23;20658;-86
2022/11/28 09:28:13;;;;;;;13.23;10.00;;;;;;;8.28;nan;99211.88;6024343;23;20175;-86
2022/11/28 09:30:38;;;;;;;12.70;10.43;;;;;;;8.35;nan;99207.97;6025186;23;20202;-86
2022/11/28 09:33:04;;;;;;;17.67;13.43;;;;;;;8.42;nan;99208.44;6025786;23;20163;-86
2022/11/28 09:35:29;;;;;;;14.80;10.97;;;;;;;8.49;nan;99212.38;6028157;23;20182;-86
2022/11/28 09:37:56;;;;;;;14.40;10.20;;;;;;;8.54;nan;99218.19;6028094;23;20493;-86
2022/11/28 09:40:35;;;;;;;12.50;10.68;;;;;;;8.59;nan;99220.53;6032242;23;20207;-86
2022/11/28 09:43:02;;;;;;;11.68;10.38;;;;;;;8.61;nan;99211.63;6034880;23;20168;-87
2022/11/28 09:45:28;;;;;;;13.93;9.30;;;;;;;8.67;nan;99220.03;6028945;23;20223;-86
2022/11/28 09:48:00;;;;;;;11.20;8.60;;;;;;;8.72;nan;99216.22;6028675;23;20172;-86
2022/11/28 09:50:30;;;;;;;8.63;7.72;;;;;;;8.76;nan;99222.91;6030247;23;20444;-85
2022/11/28 09:53:22;;;;;;;9.35;8.13;;;;;;;8.81;nan;99222.63;6028853;23;20167;-86
2022/11/28 09:56:07;;;;;;;10.82;8.05;;;;;;;8.85;nan;99222.34;6026792;23;20661;-86
2022/11/28 09:59:07;;;;;;;8.98;7.50;;;;;;;8.88;nan;99221.31;6027522;23;20263;-86
2022/11/28 10:02:03;;;;;;;17.50;7.55;;;;;;;8.93;nan;99229.72;6012597;23;20156;-86
2022/11/28 10:04:37;;;;;;;8.70;6.57;;;;;;;8.99;nan;99223.25;6007477;23;20216;-85
2022/11/28 10:07:22;;;;;;;7.75;5.53;;;;;;;9.05;nan;99220.25;5990197;23;20692;-86
2022/11/28 10:10:26;;;;;;;6.18;4.85;;;;;;;9.13;nan;99219.75;6027714;23;20236;-86
2022/11/28 10:13:09;;;;;;;5.72;4.40;;;;;;;9.20;nan;99216.63;5916989;24;20271;-86
2022/11/28 10:15:53;;;;;;;10.77;4.18;;;;;;;9.32;nan;99212.41;5939286;24;20201;-87
2022/11/28 10:18:34;;;;;;;4.60;3.60;;;;;;;9.40;nan;99218.00;6000792;23;20164;-86
2022/11/28 10:21:22;;;;;;;4.63;4.22;;;;;;;9.51;nan;99220.75;6027052;23;20171;-86
2022/11/28 10:23:51;;;;;;;5.13;2.65;;;;;;;9.60;nan;99213.22;6027605;23;20214;-86
2022/11/28 10:26:35;;;;;;;2.72;2.47;;;;;;;9.67;nan;99215.34;6026684;23;20501;-86
2022/11/28 10:29:29;;;;;;;2.90;2.30;;;;;;;9.74;nan;99210.50;6027374;23;20177;-86
2022/11/28 10:31:58;;;;;;;2.80;2.63;;;;;;;9.81;nan;99203.94;6012653;23;20182;-87
2022/11/28 10:34:39;;;;;;;2.20;2.00;;;;;;;9.86;nan;99203.63;6025345;23;20294;-87
2022/11/28 10:37:20;;;;;;;2.97;1.85;;;;;;;9.91;nan;99199.75;6025149;23;20194;-86
2022/11/28 10:39:47;;;;;;;2.78;2.25;;;;;;;9.96;nan;99200.28;6003738;23;20680;-86
2022/11/28 10:42:24;;;;;;;3.13;2.15;;;;;;;10.03;nan;99189.34;6035379;23;20173;-86
2022/11/28 10:45:12;;;;;;;3.60;2.25;;;;;;;10.05;nan;99190.09;6030787;23;20210;-85
2022/11/28 10:47:59;;;;;;;4.18;3.05;;;;;;;10.09;nan;99186.31;6030133;23;20176;-86
2022/11/28 10:51:02;;;;;;;3.35;3.03;;;;;;;10.14;nan;99182.44;6029456;23;20200;-86
2022/11/28 10:53:46;;;;;;;2.78;2.55;;;;;;;10.17;nan;99179.59;6006373;23;20217;-86
2022/11/28 10:56:48;;;;;;;3.95;3.58;;;;;;;10.23;nan;99173.06;5996499;23;20196;-85
2022/11/28 10:59:23;;;;;;;2.80;2.22;;;;;;;10.29;nan;99171.84;6026956;23;20498;-85
2022/11/28 11:01:50;;;;;;;2.70;2.50;;;;;;;10.35;nan;99166.19;6027696;23;20255;-85
2022/11/28 11:04:26;;;;;;;8.32;2.55;;;;;;;10.41;nan;99161.31;6025562;23;20201;-85
2022/11/28 11:07:12;;;;;;;4.57;3.50;;;;;;;10.46;nan;99158.38;6020838;23;20544;-85
2022/11/28 11:09:37;;;;;;;3.50;3.10;;;;;;;10.51;nan;99152.81;6024172;23;20663;-85
2022/11/28 11:12:11;;;;;;;5.80;3.77;;;;;;;10.50;nan;99151.97;6023510;23;20185;-86
2022/11/28 11:14:41;;;;;;;4.65;3.28;;;;;;;10.52;nan;99144.81;5999037;23;20283;-86
2022/11/28 11:17:40;;;;;;;5.30;3.70;;;;;;;10.55;nan;99146.38;5997888;23;20516;-85
2022/11/28 11:20:18;;;;;;;3.40;3.05;;;;;;;10.59;nan;99139.97;5999537;23;20245;-84
2022/11/28 11:22:53;;;;;;;4.07;2.60;;;;;;;10.61;nan;99135.44;6029418;23;20655;-84
2022/11/28 11:25:19;;;;;;;4.20;2.72;;;;;;;10.64;nan;99124.75;6033972;23;20204;-84
2022/11/28 11:27:53;;;;;;;5.70;2.23;;;;;;;10.66;nan;99117.56;6028728;23;20211;-86
2022/11/28 11:30:30;;;;;;;3.30;2.42;;;;;;;10.69;nan;99122.59;6023486;23;20271;-86
2022/11/28 11:32:58;;;;;;;3.10;2.42;;;;;;;10.71;nan;99123.34;6025401;23;20623;-86
2022/11/28 11:35:28;;;;;;;4.03;2.15;;;;;;;10.71;nan;99118.06;5987760;23;20221;-87
2022/11/28 11:38:16;;;;;;;2.83;2.45;;;;;;;10.71;nan;99112.81;5995405;23;20181;-85
2022/11/28 11:40:41;;;;;;;2.85;2.30;;;;;;;10.71;nan;99102.31;5965599;23;20233;-86
2022/11/28 11:43:32;;;;;;;5.33;2.50;;;;;;;10.72;nan;99104.00;5995609;23;20182;-86
2022/11/28 11:46:11;;;;;;;3.47;2.60;;;;;;;10.73;nan;99097.81;5994857;23;20209;-86
2022/11/28 11:48:45;;;;;;;3.63;3.05;;;;;;;10.75;nan;99093.28;5965697;24;20189;-86
2022/11/28 11:51:25;;;;;;;4.20;3.33;;;;;;;10.79;nan;99104.41;5994763;23;20206;-86
2022/11/28 11:54:00;;;;;;;3.28;2.90;;;;;;;10.83;nan;99105.88;5967533;23;20270;-86
2022/11/28 11:56:29;;;;;;;3.60;2.70;;;;;;;10.87;nan;99095.97;5995399;23;20190;-85
2022/11/28 11:58:57;;;;;;;4.20;3.78;;;;;;;10.89;nan;99094.06;5999852;23;20177;-85
2022/11/28 12:01:25;;;;;;;5.78;4.07;;;;;;;10.91;nan;99097.41;6001218;23;20173;-84
2022/11/28 12:03:59;;;;;;;6.38;3.00;;;;;;;10.92;nan;99093.84;6008612;23;20194;-84
2022/11/28 12:06:39;;;;;;;5.65;3.10;;;;;;;10.93;nan;99096.34;5999490;23;20182;-84
2022/11/28 12:09:15;;;;;;;4.30;3.10;;;;;;;10.95;nan;99089.19;5994902;23;20184;-85
2022/11/28 12:11:50;;;;;;;5.25;4.60;;;;;;;11.00;nan;99092.31;5996111;23;20214;-85
2022/11/28 12:14:30;;;;;;;7.55;4.82;;;;;;;11.03;nan;99093.88;5997134;23;20198;-85